Elkhart, Indiana
Current Conditions -  °F | °C
As of 2:53 AM on Tuesday 27 Jan 2015 (Local Time) from KGSH Reporting Station
Overcast Overcast  
Wind Chill: 21°   Ceiling: 9500
Heat Index: 21°   Visibility: 10mi
Dew Point: 14°   Wind: 3mph
Humidity: 74%   Direction: 100°E
Pressure: 29.94"   Gusts: NA
Location:  41.69°N, 85.97°W
Report Text: KGSH 270753Z AUTO 10003KT 10SM OVC095 M06/M10 A2994 RMK AO2 SLP152 T10611100
Loading
Personal Weather Stations






























Interactive Weather Map New forecast layout! Learn more

10-Day Weather Forecast

Advertisements
Track Severe Weather on mobile